Flight Track Log - Related Links

Times and Time Zones

All times are in EDT time to prevent confusion due to time zone crossing. See the GJS6189 flight status page for this flight to view local times or setup timezone preferences in your user account.

Time Position Orientation Groundspeed Altitude Reporting Facility
EDT Latitude Longitude Course Direction KTS MPH feet Rate Location/Type
Mon 08:33:16 PM 40.8167 -73.8667 264° West 147 169 2,400  Level New York TRACON
Mon 08:34:16 PM 40.8667 -73.9000 333° Northwest 202 232 4,800 2,600 Climbing New York TRACON
Mon 08:35:16 PM 40.9000 -73.9667 303° West 258 297 7,600 2,650 Climbing New York TRACON
Mon 08:36:16 PM 40.8833 -74.0667 258° West 295 339 10,100 2,400 Climbing New York TRACON
Mon 08:37:16 PM 40.8667 -74.1833 259° West 329 379 12,400 1,950 Climbing New York TRACON
Mon 08:38:00 PM 40.7217 -74.5690 264° West  Level FlightAware Approximate
Mon 08:38:16 PM 40.8500 -74.3000 259° West 375 432 14,000  Level New York TRACON
Mon 08:40:38 PM 40.7800 -74.6242 254° West 394 453 17,100 1,218 Climbing New York Center
Mon 08:41:38 PM 40.7525 -74.7594 255° West 394 453 18,100 1,150 Climbing New York Center
Mon 08:42:38 PM 40.7233 -74.8839 253° West 389 448 19,400 1,400 Climbing New York Center
Mon 08:43:38 PM 40.6953 -75.0272 256° West 394 453 20,900 1,500 Climbing New York Center
Mon 08:44:38 PM 40.6422 -75.1689 244° Southwest 409 471 22,400 1,350 Climbing New York Center
Mon 08:45:38 PM 40.5808 -75.3014 239° Southwest 421 484 23,600 1,200 Climbing New York Center
Mon 08:46:38 PM 40.5192 -75.4394 240° Southwest 431 496 24,800 1,200 Climbing New York Center
Mon 08:47:38 PM 40.4572 -75.5797 240° Southwest 438 504 26,000 1,200 Climbing New York Center
Mon 08:48:38 PM 40.3911 -75.7197 238° Southwest 448 516 27,200 1,200 Climbing New York Center
Mon 08:49:38 PM 40.3269 -75.8594 239° Southwest 453 521 28,400 1,200 Climbing New York Center
Mon 08:50:38 PM 40.2514 -76.0144 237° Southwest 459 528 29,600 800 Climbing New York Center
Mon 08:51:38 PM 40.1825 -76.1558 238° Southwest 459 528 30,000 200 Climbing New York Center
Mon 08:52:38 PM 40.1175 -76.2975 239° Southwest 459 528 30,000  Level New York Center
Mon 08:55:05 PM 39.9633 -76.6308 239° Southwest 447 514 30,000  Level Washington Center
Mon 08:56:03 PM 39.8975 -76.7678 238° Southwest 454 522 30,000  Level Washington Center
Mon 08:57:04 PM 39.8314 -76.9100 239° Southwest 454 522 30,000  Level Washington Center
Mon 08:58:04 PM 39.7675 -77.0492 239° Southwest 454 522 30,000  Level Washington Center
Mon 08:59:05 PM 39.7011 -77.1908 239° Southwest 454 522 30,000  Level Washington Center
Mon 09:00:05 PM 39.6344 -77.3267 238° Southwest 454 522 30,000  Level Washington Center
Mon 09:01:03 PM 39.5700 -77.4653 239° Southwest 454 522 30,000  Level Washington Center
Mon 09:02:03 PM 39.5117 -77.5875 238° Southwest 449 517 30,000  Level Washington Center
Mon 09:03:04 PM 39.4469 -77.7228 238° Southwest 449 517 30,000  Level Washington Center
Mon 09:04:05 PM 39.3819 -77.8578 238° Southwest 449 517 30,000  Level Washington Center
Mon 09:05:05 PM 39.3250 -78.0008 243° Southwest 449 517 30,000  Level Washington Center
Mon 09:06:03 PM 39.2700 -78.1439 244° Southwest 449 517 30,000  Level Washington Center
Mon 09:07:05 PM 39.2128 -78.2839 242° Southwest 449 517 30,000  Level Washington Center
Mon 09:08:03 PM 39.1553 -78.4236 242° Southwest 444 511 30,000  Level Washington Center
Mon 09:09:04 PM 39.0997 -78.5658 243° Southwest 444 511 30,000  Level Washington Center
Mon 09:10:05 PM 39.0397 -78.7103 242° Southwest 449 517 30,000  Level Washington Center
Mon 09:11:03 PM 38.9817 -78.8522 242° Southwest 449 517 30,000  Level Washington Center
Mon 09:12:03 PM 38.9258 -78.9939 243° Southwest 444 511 30,000  Level Washington Center
Mon 09:13:03 PM 38.8697 -79.1325 243° Southwest 444 511 30,000  Level Washington Center
Mon 09:14:04 PM 38.8278 -79.2769 250° West 444 511 30,000  Level Washington Center
Mon 09:15:04 PM 38.7981 -79.4247 256° West 433 498 30,000  Level Washington Center
Mon 09:16:05 PM 38.7764 -79.5781 260° West 433 498 30,000  Level Washington Center
Mon 09:17:05 PM 38.7483 -79.7311 257° West 438 504 30,000  Level Washington Center
Mon 09:18:03 PM 38.7203 -79.8783 256° West 438 504 30,000  Level Washington Center
Mon 09:18:39 PM 38.7011 -79.9639 254° West 434 499 30,000  Level Indianapolis Center
Mon 09:19:40 PM 38.6731 -80.1156 257° West 435 501 30,000  Level Indianapolis Center
Mon 09:20:42 PM 38.6444 -80.2667 256° West 436 502 30,000  Level Indianapolis Center
Mon 09:21:43 PM 38.6156 -80.4181 256° West 436 502 30,000  Level Indianapolis Center
Mon 09:22:44 PM 38.5878 -80.5669 257° West 435 501 30,000  Level Indianapolis Center
Mon 09:23:45 PM 38.5533 -80.7464 256° West 435 501 30,000  Level Indianapolis Center
Mon 09:24:47 PM 38.5239 -80.8953 256° West 434 499 30,000  Level Indianapolis Center
Mon 09:25:48 PM 38.4944 -81.0458 256° West 434 499 30,000  Level Indianapolis Center
Mon 09:26:49 PM 38.4633 -81.1981 255° West 434 499 30,000  Level Indianapolis Center
Mon 09:27:51 PM 38.4331 -81.3508 256° West 435 501 30,000  Level Indianapolis Center
Mon 09:28:52 PM 38.4031 -81.5056 256° West 439 505 30,000  Level Indianapolis Center
Mon 09:29:54 PM 38.3719 -81.6594 256° West 440 506 30,000  Level Indianapolis Center
Mon 09:30:55 PM 38.3389 -81.8122 255° West 441 507 30,000  Level Indianapolis Center
Mon 09:31:56 PM 38.2972 -81.9597 250° West 441 507 30,000  Level Indianapolis Center
Mon 09:32:58 PM 38.2553 -82.1067 250° West 441 507 30,000  Level Indianapolis Center
Mon 09:33:59 PM 38.2147 -82.2522 251° West 441 507 30,000  Level Indianapolis Center
Mon 09:35:01 PM 38.1731 -82.3978 250° West 440 506 30,000  Level Indianapolis Center
Mon 09:36:02 PM 38.1258 -82.5650 250° West 437 503 30,000  Level Indianapolis Center
Mon 09:37:03 PM 38.0711 -82.7033 243° Southwest 440 506 30,000  Level Indianapolis Center
Mon 09:38:05 PM 38.0086 -82.8353 239° Southwest 440 506 30,000  Level Indianapolis Center
Mon 09:39:06 PM 37.9456 -82.9675 239° Southwest 440 506 30,000  Level Indianapolis Center
Mon 09:40:07 PM 37.8819 -83.1003 239° Southwest 440 506 30,000  Level Indianapolis Center
Mon 09:41:09 PM 37.8183 -83.2303 238° Southwest 440 506 30,000  Level Indianapolis Center
Mon 09:42:10 PM 37.7542 -83.3625 238° Southwest 440 506 30,000  Level Indianapolis Center
Mon 09:43:11 PM 37.6800 -83.5150 238° Southwest 439 505 30,000  Level Indianapolis Center
Mon 09:44:13 PM 37.6164 -83.6456 238° Southwest 439 505 30,000  Level Indianapolis Center
Mon 09:45:14 PM 37.5528 -83.7756 238° Southwest 437 503 30,000  Level Indianapolis Center
Mon 09:46:15 PM 37.4892 -83.9050 238° Southwest 437 503 30,000  Level Indianapolis Center
Mon 09:47:17 PM 37.4244 -84.0353 238° Southwest 437 503 30,000  Level Indianapolis Center
Mon 09:48:18 PM 37.3589 -84.1656 238° Southwest 438 504 30,000 -49 Level Indianapolis Center
Mon 09:49:19 PM 37.2947 -84.2956 238° Southwest 438 504 29,900 -541 Descending Indianapolis Center
Mon 09:50:20 PM 37.2278 -84.4278 238° Southwest 446 513 28,900 -1,073 Descending Indianapolis Center
Mon 09:51:22 PM 37.1533 -84.5772 238° Southwest 439 505 27,700 -1,073 Descending Indianapolis Center
Mon 09:52:23 PM 37.0911 -84.6986 237° Southwest 420 483 26,700 -984 Descending Indianapolis Center
Mon 09:53:24 PM 37.0328 -84.8164 238° Southwest 419 482 25,700 -984 Descending Indianapolis Center
Mon 09:54:25 PM 36.9711 -84.9378 238° Southwest 418 481 24,700 -976 Descending Indianapolis Center
Mon 09:55:27 PM 36.9103 -85.0578 238° Southwest 414 476 23,700 -976 Descending Indianapolis Center
Mon 09:56:28 PM 36.8556 -85.1772 240° Southwest 403 464 22,700 -836 Descending Indianapolis Center
Mon 09:57:29 PM 36.8006 -85.2939 240° Southwest 397 457 22,000 -344 Descending Indianapolis Center
Mon 09:58:30 PM 36.7381 -85.4289 240° Southwest 381 438 22,000 -885 Level Indianapolis Center
Mon 09:59:31 PM 36.6869 -85.5386 240° Southwest 372 428 20,200 -1,869 Descending Indianapolis Center
Mon 10:00:32 PM 36.6364 -85.6442 239° Southwest 363 418 18,200 -1,967 Descending Indianapolis Center
Mon 10:01:33 PM 36.5867 -85.7494 240° Southwest 358 412 16,200 -2,098 Descending Indianapolis Center
Mon 10:02:35 PM 36.5361 -85.8578 240° Southwest 343 395 13,900 -2,195 Descending Indianapolis Center
Mon 10:03:36 PM 36.4889 -85.9542 239° Southwest 329 379 11,700 -1,623 Descending Indianapolis Center
Mon 10:04:37 PM 36.4475 -86.0417 240° Southwest 301 346 10,600 -1,377 Descending Indianapolis Center
Mon 10:05:38 PM 36.4100 -86.1208 240° Southwest 273 314 8,900 -1,574 Descending Indianapolis Center
Mon 10:06:39 PM 36.3806 -86.1975 245° Southwest 252 290 7,400 -1,623 Descending Indianapolis Center
Mon 10:07:40 PM 36.3525 -86.2722 245° Southwest 241 277 5,600 -1,672 Descending Indianapolis Center
Mon 10:08:41 PM 36.3242 -86.3472 245° Southwest 240 276 4,000 -1,426 Descending Indianapolis Center
Mon 10:09:42 PM 36.2947 -86.4217 244° Southwest 239 275 2,700 -780 Descending Indianapolis Center
Mon 10:10:44 PM 36.2656 -86.4978 245° Southwest 238 274 2,400 -341 Descending Indianapolis Center
Mon 10:11:45 PM 36.2408 -86.5622 245° Southwest 215 247 2,000 -197 Descending Indianapolis Center
Mon 10:12:46 PM 36.2200 -86.6192 246° West 190 219 2,000  Level Indianapolis Center
Mon 10:13:47 PM 36.1942 -86.6556 229° Southwest 150 173 2,000 -458 Level Indianapolis Center
Mon 10:15:10 PM 36.1508 -86.6731 198° South 127 146 900 -542 Descending Memphis Center
Mon 10:16:11 PM 36.1147 -86.6872 198° South 125 144 700 -197 Descending Memphis Center

Login

Don't have an account? Register now (free) for customized features, flight alerts, and more!